createdAt,value
2018-12-18T00:00:19.519Z,42.93
2018-12-18T00:02:50.452Z,44.10
2018-12-18T00:05:25.160Z,45.23
2018-12-18T00:07:53.708Z,42.20
2018-12-18T00:10:24.124Z,39.07
2018-12-18T00:12:52.544Z,44.07
2018-12-18T00:15:21.030Z,43.50
2018-12-18T00:17:49.420Z,39.03
2018-12-18T00:20:17.853Z,43.23
2018-12-18T00:22:46.228Z,42.87
2018-12-18T00:25:14.657Z,41.80
2018-12-18T00:27:43.103Z,49.87
2018-12-18T00:30:11.564Z,47.63
2018-12-18T00:32:39.948Z,41.97
2018-12-18T00:35:08.490Z,44.03
2018-12-18T00:37:37.078Z,43.07
2018-12-18T00:40:06.011Z,41.53
2018-12-18T00:42:34.474Z,44.33
2018-12-18T00:45:02.847Z,45.93
2018-12-18T00:47:31.247Z,48.50
2018-12-18T00:49:59.648Z,47.27
2018-12-18T00:52:28.086Z,45.07
2018-12-18T00:54:56.498Z,46.27
2018-12-18T00:57:24.904Z,47.43
2018-12-18T00:59:53.292Z,51.90
2018-12-18T01:02:21.668Z,43.70
2018-12-18T01:04:51.009Z,43.27
2018-12-18T01:07:19.552Z,42.23
2018-12-18T01:09:48.016Z,41.20
2018-12-18T01:12:16.395Z,44.73
2018-12-18T01:14:44.822Z,42.60
2018-12-18T01:17:13.204Z,44.80
2018-12-18T01:19:41.687Z,45.40
2018-12-18T01:22:10.169Z,43.97
2018-12-18T01:24:38.659Z,43.67
2018-12-18T01:27:06.989Z,43.70
2018-12-18T01:29:35.375Z,40.53
2018-12-18T01:32:03.834Z,42.17
2018-12-18T01:34:32.264Z,38.73
2018-12-18T01:37:00.692Z,42.37
2018-12-18T01:39:29.143Z,43.40
2018-12-18T01:41:57.533Z,45.93
2018-12-18T01:44:25.947Z,42.60
2018-12-18T01:46:54.380Z,43.67
2018-12-18T01:49:22.743Z,46.13
2018-12-18T01:51:51.155Z,43.80
2018-12-18T01:54:19.687Z,43.10
2018-12-18T01:56:48.188Z,42.73
2018-12-18T01:59:16.663Z,37.17
2018-12-18T02:01:45.043Z,39.07
2018-12-18T02:04:13.424Z,43.13
2018-12-18T02:06:42.058Z,43.60
2018-12-18T02:09:11.347Z,45.87
2018-12-18T02:11:39.686Z,49.57
2018-12-18T02:14:08.141Z,46.13
2018-12-18T02:16:36.571Z,51.80
2018-12-18T02:19:05.073Z,51.20
2018-12-18T02:21:33.465Z,53.83
2018-12-18T02:24:01.878Z,52.07
2018-12-18T02:26:30.290Z,50.23
2018-12-18T02:28:58.840Z,67.70
2018-12-18T02:31:27.289Z,53.87
2018-12-18T02:33:55.925Z,56.30
2018-12-18T02:36:24.371Z,52.83
2018-12-18T02:38:52.778Z,49.40
2018-12-18T02:41:21.193Z,53.97
2018-12-18T02:43:49.613Z,50.73
2018-12-18T02:46:18.053Z,53.93
2018-12-18T02:48:46.404Z,53.23
2018-12-18T02:51:14.877Z,49.60
2018-12-18T02:53:43.261Z,47.43
2018-12-18T02:56:11.670Z,49.43
2018-12-18T02:58:40.100Z,48.43
2018-12-18T03:01:08.501Z,53.43
2018-12-18T03:03:36.864Z,47.40
2018-12-18T03:06:05.298Z,44.53
2018-12-18T03:08:33.706Z,53.20
2018-12-18T03:11:02.113Z,52.13
2018-12-18T03:13:30.531Z,49.93
2018-12-18T03:15:59.157Z,48.37
2018-12-18T03:18:27.545Z,51.73
2018-12-18T03:20:55.977Z,54.30
2018-12-18T03:23:24.431Z,54.07
2018-12-18T03:25:52.927Z,57.80
2018-12-18T03:28:21.327Z,52.60
2018-12-18T03:30:49.726Z,51.93
2018-12-18T03:33:18.122Z,54.07
2018-12-18T03:35:46.581Z,47.33
2018-12-18T03:38:14.988Z,51.37
2018-12-18T03:40:43.376Z,58.07
2018-12-18T03:43:11.766Z,58.67
2018-12-18T03:45:40.262Z,58.00
2018-12-18T03:48:08.679Z,56.07
2018-12-18T03:50:37.165Z,49.43
2018-12-18T03:53:05.672Z,51.43
2018-12-18T03:55:34.181Z,48.47
2018-12-18T03:58:02.553Z,47.93
2018-12-18T04:00:30.935Z,47.23
2018-12-18T04:02:59.353Z,45.60
2018-12-18T04:05:27.747Z,44.90
2018-12-18T04:07:56.311Z,48.17
2018-12-18T04:10:24.699Z,54.20
2018-12-18T04:12:53.159Z,56.27
2018-12-18T04:15:21.578Z,55.93
2018-12-18T04:17:49.981Z,57.53
2018-12-18T04:20:18.346Z,59.03
2018-12-18T04:22:46.791Z,58.60
2018-12-18T04:25:15.180Z,62.23
2018-12-18T04:27:43.604Z,71.53
2018-12-18T04:30:11.974Z,83.20
2018-12-18T04:32:40.409Z,77.07
2018-12-18T04:35:08.823Z,74.33
2018-12-18T04:37:37.225Z,81.73
2018-12-18T04:40:06.292Z,70.57
2018-12-18T04:42:34.782Z,76.70
2018-12-18T04:45:03.398Z,73.93
2018-12-18T04:47:31.910Z,74.93
2018-12-18T04:50:00.266Z,69.87
2018-12-18T04:52:28.696Z,67.63
2018-12-18T04:54:57.075Z,64.53
2018-12-18T04:57:25.430Z,62.30
2018-12-18T04:59:53.920Z,66.27
2018-12-18T05:02:22.380Z,66.73
2018-12-18T05:04:50.831Z,70.00
2018-12-18T05:07:19.349Z,72.03
2018-12-18T05:09:47.835Z,76.93
2018-12-18T05:12:16.221Z,67.97
2018-12-18T05:14:44.691Z,64.20
2018-12-18T05:17:13.134Z,67.07
2018-12-18T05:19:41.618Z,59.73
2018-12-18T05:22:10.013Z,73.97
2018-12-18T05:24:38.486Z,90.27
2018-12-18T05:27:06.849Z,76.53
2018-12-18T05:29:35.227Z,83.67
2018-12-18T05:32:10.097Z,75.90
2018-12-18T05:34:38.506Z,64.33
2018-12-18T05:37:06.905Z,80.27
2018-12-18T05:39:35.308Z,90.70
2018-12-18T05:42:03.787Z,81.30
2018-12-18T05:44:32.168Z,91.37
2018-12-18T05:47:00.531Z,78.93
2018-12-18T05:49:28.937Z,99.70
2018-12-18T05:51:57.331Z,95.60
2018-12-18T05:54:25.857Z,94.80
2018-12-18T05:56:54.323Z,125.63
2018-12-18T05:59:22.955Z,147.73
2018-12-18T06:01:51.369Z,106.50
2018-12-18T06:04:19.713Z,108.00
2018-12-18T06:06:48.209Z,99.03
2018-12-18T06:09:16.713Z,99.10
2018-12-18T06:11:45.193Z,99.50
2018-12-18T06:14:13.573Z,100.07
2018-12-18T06:16:42.036Z,93.87
2018-12-18T06:19:10.539Z,112.80
2018-12-18T06:21:39.173Z,153.37
2018-12-18T06:24:07.674Z,272.17
2018-12-18T06:26:36.107Z,332.10
2018-12-18T06:29:04.624Z,106.53
2018-12-18T06:31:33.069Z,269.17
2018-12-18T06:34:01.467Z,553.57
2018-12-18T06:36:29.916Z,462.60
2018-12-18T06:38:58.290Z,354.03
2018-12-18T06:41:26.675Z,387.53
2018-12-18T06:43:55.199Z,445.13
2018-12-18T06:46:24.392Z,613.43
2018-12-18T06:48:52.827Z,410.23
2018-12-18T06:51:21.275Z,400.60
2018-12-18T06:53:49.702Z,252.53
2018-12-18T06:56:18.118Z,468.60
2018-12-18T06:58:46.587Z,446.43
2018-12-18T07:01:15.019Z,438.20
2018-12-18T07:03:43.407Z,227.63
2018-12-18T07:06:11.859Z,217.23
2018-12-18T07:08:40.280Z,135.40
2018-12-18T07:11:08.752Z,124.63
2018-12-18T07:13:37.233Z,210.33
2018-12-18T07:16:05.641Z,318.50
2018-12-18T07:18:34.107Z,388.40
2018-12-18T07:21:02.546Z,137.20
2018-12-18T07:23:30.938Z,297.83
2018-12-18T07:25:59.351Z,322.83
2018-12-18T07:28:27.785Z,336.07
2018-12-18T07:30:56.171Z,583.03
2018-12-18T07:33:24.571Z,505.80
2018-12-18T07:35:53.001Z,396.93
2018-12-18T07:38:21.535Z,217.00
2018-12-18T07:40:49.971Z,331.00
2018-12-18T07:43:18.565Z,190.23
2018-12-18T07:45:47.169Z,477.27
2018-12-18T07:48:22.449Z,254.23
2018-12-18T07:50:50.885Z,234.67
2018-12-18T07:53:19.507Z,615.47
2018-12-18T07:55:48.096Z,327.63
2018-12-18T07:58:16.652Z,460.30
2018-12-18T08:00:45.168Z,553.20
2018-12-18T08:03:13.545Z,301.43
2018-12-18T08:05:42.003Z,260.33
2018-12-18T08:08:10.408Z,336.63
2018-12-18T08:10:38.801Z,485.70
2018-12-18T08:13:07.213Z,313.10
2018-12-18T08:15:35.683Z,635.50
2018-12-18T08:18:04.109Z,303.77
2018-12-18T08:20:32.566Z,548.70
2018-12-18T08:23:01.050Z,259.90
2018-12-18T08:25:29.441Z,231.30
2018-12-18T08:27:57.881Z,304.40
2018-12-18T08:30:26.387Z,222.70
2018-12-18T08:32:54.826Z,394.20
2018-12-18T08:35:23.285Z,228.23
2018-12-18T08:37:52.086Z,459.17
2018-12-18T08:40:20.467Z,341.33
2018-12-18T08:42:48.847Z,434.40
2018-12-18T08:45:17.249Z,390.47
2018-12-18T08:47:45.713Z,323.77
2018-12-18T08:50:14.145Z,126.90
2018-12-18T08:52:42.753Z,130.33
2018-12-18T08:55:11.205Z,124.80
2018-12-18T08:57:39.663Z,140.37
2018-12-18T09:00:09.176Z,126.57
2018-12-18T09:02:37.587Z,144.57
2018-12-18T09:05:06.619Z,242.80
2018-12-18T09:07:35.034Z,205.13
2018-12-18T09:10:04.063Z,204.27
2018-12-18T09:12:32.478Z,72.17
2018-12-18T09:15:02.867Z,63.07
2018-12-18T09:17:36.591Z,142.53
2018-12-18T09:20:05.159Z,264.17
2018-12-18T09:22:33.618Z,94.30
2018-12-18T09:25:02.138Z,113.73
2018-12-18T09:27:30.604Z,196.30
2018-12-18T09:29:59.651Z,218.07
2018-12-18T09:32:28.102Z,136.30
2018-12-18T09:34:56.588Z,178.43
2018-12-18T09:37:25.099Z,45.23
2018-12-18T09:39:53.492Z,135.43
2018-12-18T09:42:27.400Z,108.03
2018-12-18T09:44:55.790Z,155.73
2018-12-18T09:47:24.254Z,63.23
2018-12-18T09:49:52.807Z,85.83
2018-12-18T09:52:21.162Z,54.87
2018-12-18T09:54:49.547Z,99.40
2018-12-18T09:57:23.205Z,167.47
2018-12-18T09:59:51.612Z,121.80
2018-12-18T10:02:20.294Z,89.27
2018-12-18T10:04:48.703Z,86.57
2018-12-18T10:07:17.088Z,93.77
2018-12-18T10:09:45.498Z,80.93
2018-12-18T10:12:15.932Z,118.40
2018-12-18T10:14:44.326Z,112.23
2018-12-18T10:17:12.798Z,143.67
2018-12-18T10:19:41.236Z,118.30
2018-12-18T10:22:09.691Z,93.03
2018-12-18T10:24:38.067Z,50.07
2018-12-18T10:27:06.471Z,121.07
2018-12-18T10:29:34.838Z,50.23
2018-12-18T10:32:03.243Z,72.97
2018-12-18T10:34:31.614Z,73.47
2018-12-18T10:37:00.090Z,86.63
2018-12-18T10:39:28.474Z,99.97
2018-12-18T10:41:57.794Z,45.83
2018-12-18T10:44:26.236Z,36.47
2018-12-18T10:46:54.672Z,60.73
2018-12-18T10:49:23.061Z,125.07
2018-12-18T10:51:51.437Z,120.10
2018-12-18T10:54:20.039Z,79.63
2018-12-18T10:56:48.498Z,76.63
2018-12-18T10:59:16.890Z,71.27
2018-12-18T11:01:47.524Z,66.13
2018-12-18T11:04:16.152Z,43.97
2018-12-18T11:06:44.563Z,73.73
2018-12-18T11:09:12.959Z,42.53
2018-12-18T11:11:41.443Z,45.97
2018-12-18T11:14:09.842Z,69.03
2018-12-18T11:16:38.278Z,97.77
2018-12-18T11:19:06.728Z,117.60
2018-12-18T11:21:35.135Z,54.33
2018-12-18T11:24:03.861Z,100.73
2018-12-18T11:26:32.294Z,106.37
2018-12-18T11:29:00.760Z,96.00
2018-12-18T11:31:29.258Z,130.23
2018-12-18T11:33:57.707Z,122.20
2018-12-18T11:36:26.203Z,185.13
2018-12-18T11:38:54.695Z,179.30
2018-12-18T11:41:23.124Z,194.00
2018-12-18T11:43:52.471Z,96.43
2018-12-18T11:46:20.874Z,99.20
2018-12-18T11:48:49.265Z,184.67
2018-12-18T11:51:17.682Z,77.63
2018-12-18T11:53:46.035Z,133.17
2018-12-18T11:56:14.473Z,194.93
2018-12-18T11:58:42.871Z,200.77
2018-12-18T12:01:11.797Z,209.40
2018-12-18T12:03:40.177Z,177.07
2018-12-18T12:06:08.611Z,150.17
2018-12-18T12:08:37.099Z,225.40
2018-12-18T12:11:05.548Z,136.07
2018-12-18T12:13:34.074Z,179.97
2018-12-18T12:16:02.632Z,100.90
2018-12-18T12:18:31.134Z,87.07
2018-12-18T12:20:59.576Z,84.63
2018-12-18T12:23:28.128Z,103.50
2018-12-18T12:25:56.602Z,63.50
2018-12-18T12:28:25.706Z,83.77
2018-12-18T12:30:54.125Z,72.07
2018-12-18T12:33:22.548Z,133.13
2018-12-18T12:35:50.936Z,79.33
2018-12-18T12:38:19.385Z,72.63
2018-12-18T12:40:47.916Z,111.57
2018-12-18T12:43:16.295Z,79.50
2018-12-18T12:45:44.790Z,61.83
2018-12-18T12:48:13.270Z,88.20
2018-12-18T12:50:41.784Z,64.67
2018-12-18T12:53:10.545Z,55.53
2018-12-18T12:55:38.975Z,61.40
2018-12-18T12:58:07.372Z,53.07
2018-12-18T13:00:35.829Z,55.77
2018-12-18T13:03:04.316Z,49.67
2018-12-18T13:05:32.784Z,57.27
2018-12-18T13:08:01.163Z,47.80
2018-12-18T13:10:29.545Z,50.00
2018-12-18T13:12:58.001Z,48.33
2018-12-18T13:15:26.374Z,43.10
2018-12-18T13:17:54.771Z,44.43
2018-12-18T13:20:23.211Z,41.80
2018-12-18T13:22:51.703Z,41.00
2018-12-18T13:25:20.114Z,40.50
2018-12-18T13:27:48.462Z,40.47
2018-12-18T13:30:16.839Z,39.43
2018-12-18T13:32:45.424Z,39.20
2018-12-18T13:35:13.906Z,39.53
2018-12-18T13:37:42.508Z,38.97
2018-12-18T13:40:11.011Z,40.80
2018-12-18T13:42:39.586Z,37.53
2018-12-18T13:45:08.155Z,35.77
2018-12-18T13:47:36.554Z,40.77
2018-12-18T13:50:05.240Z,37.03
2018-12-18T13:52:33.618Z,43.40
2018-12-18T13:55:02.043Z,42.57
2018-12-18T13:57:30.414Z,35.67
2018-12-18T13:59:58.892Z,36.40
2018-12-18T14:02:27.307Z,30.70
2018-12-18T14:04:56.413Z,34.40
2018-12-18T14:07:24.954Z,32.40
2018-12-18T14:09:53.495Z,36.27
2018-12-18T14:12:23.212Z,35.30
2018-12-18T14:14:51.914Z,35.60
2018-12-18T14:17:20.489Z,42.87
2018-12-18T14:19:49.010Z,45.13
2018-12-18T14:22:17.575Z,40.53
2018-12-18T14:24:46.052Z,38.13
2018-12-18T14:27:14.526Z,34.97
2018-12-18T14:29:42.910Z,35.47
2018-12-18T14:32:11.264Z,40.30
2018-12-18T14:34:39.747Z,38.37
2018-12-18T14:37:08.220Z,39.93
2018-12-18T14:39:36.634Z,39.87
2018-12-18T14:42:05.128Z,39.87
2018-12-18T14:44:33.534Z,41.50
2018-12-18T14:47:01.929Z,42.70
2018-12-18T14:49:30.306Z,45.67
2018-12-18T14:51:58.694Z,40.80
2018-12-18T14:54:27.371Z,44.03
2018-12-18T14:56:55.848Z,42.50
2018-12-18T14:59:24.845Z,44.80
2018-12-18T15:01:53.336Z,46.80
2018-12-18T15:04:22.005Z,43.17
2018-12-18T15:06:50.420Z,39.23
2018-12-18T15:09:18.847Z,37.27
2018-12-18T15:11:47.253Z,35.97
2018-12-18T15:14:15.671Z,37.33
2018-12-18T15:16:44.896Z,39.93
2018-12-18T15:19:13.708Z,36.90
2018-12-18T15:21:42.119Z,36.10
2018-12-18T15:24:10.555Z,37.60
2018-12-18T15:26:38.967Z,38.70
2018-12-18T15:29:07.414Z,36.30
2018-12-18T15:31:35.869Z,33.40
2018-12-18T15:34:04.765Z,37.63
2018-12-18T15:36:33.243Z,40.30
2018-12-18T15:39:01.653Z,42.50
2018-12-18T15:41:30.115Z,39.80
2018-12-18T15:43:58.606Z,43.83
2018-12-18T15:46:27.423Z,44.00
2018-12-18T15:48:55.888Z,40.70
2018-12-18T15:51:24.350Z,43.07
2018-12-18T15:53:52.828Z,45.83
2018-12-18T15:56:21.329Z,42.30
2018-12-18T15:58:49.835Z,47.00
2018-12-18T16:01:18.242Z,54.27
2018-12-18T16:03:46.692Z,52.23
2018-12-18T16:06:15.117Z,55.97
2018-12-18T16:08:43.493Z,56.43
2018-12-18T16:11:11.935Z,61.10
2018-12-18T16:13:40.419Z,59.03
2018-12-18T16:16:09.392Z,61.37
2018-12-18T16:18:37.953Z,68.30
2018-12-18T16:21:06.804Z,69.30
2018-12-18T16:23:35.352Z,63.57
2018-12-18T16:26:03.935Z,69.90
2018-12-18T16:28:32.375Z,65.57
2018-12-18T16:31:00.801Z,68.97
2018-12-18T16:33:29.290Z,70.97
2018-12-18T16:35:57.736Z,82.13
2018-12-18T16:38:26.438Z,77.73
2018-12-18T16:40:54.850Z,65.47
2018-12-18T16:43:23.349Z,62.73
2018-12-18T16:45:51.713Z,74.07
2018-12-18T16:48:20.153Z,68.43
2018-12-18T16:50:48.641Z,55.13
2018-12-18T16:53:17.022Z,64.27
2018-12-18T16:55:45.698Z,53.73
2018-12-18T16:58:14.283Z,54.27
2018-12-18T17:00:42.702Z,56.77
2018-12-18T17:03:11.150Z,57.57
2018-12-18T17:05:39.569Z,52.57
2018-12-18T17:08:07.950Z,48.03
2018-12-18T17:10:36.434Z,46.33
2018-12-18T17:13:04.871Z,52.17
2018-12-18T17:15:33.257Z,48.73
2018-12-18T17:18:01.700Z,48.77
2018-12-18T17:20:30.150Z,48.80
2018-12-18T17:22:58.558Z,48.80
2018-12-18T17:25:27.080Z,46.87
2018-12-18T17:27:55.515Z,46.10
2018-12-18T17:30:23.869Z,43.13
2018-12-18T17:32:52.333Z,47.70
2018-12-18T17:35:20.854Z,42.63
2018-12-18T17:37:49.254Z,47.43
2018-12-18T17:40:17.717Z,48.43
2018-12-18T17:42:46.266Z,46.40
2018-12-18T17:45:14.672Z,47.33
2018-12-18T17:47:43.115Z,46.00
2018-12-18T17:50:11.605Z,45.03
2018-12-18T17:52:40.037Z,43.90
2018-12-18T17:55:08.470Z,45.23
2018-12-18T17:57:36.898Z,50.13
2018-12-18T18:00:05.459Z,46.60
2018-12-18T18:02:33.929Z,49.40
2018-12-18T18:05:02.429Z,43.03
2018-12-18T18:07:30.866Z,46.10
2018-12-18T18:09:59.343Z,45.90
2018-12-18T18:12:30.028Z,43.87
2018-12-18T18:14:58.269Z,45.10
2018-12-18T18:17:26.956Z,43.53
2018-12-18T18:19:55.494Z,44.53
2018-12-18T18:22:23.920Z,42.00
2018-12-18T18:24:52.411Z,44.23
2018-12-18T18:27:20.862Z,40.93
2018-12-18T18:29:49.336Z,41.07
2018-12-18T18:32:17.795Z,41.17
2018-12-18T18:34:46.199Z,39.67
2018-12-18T18:37:14.642Z,44.50
2018-12-18T18:39:43.132Z,42.00
2018-12-18T18:42:11.675Z,40.10
2018-12-18T18:44:40.214Z,44.57
2018-12-18T18:47:08.631Z,50.03
2018-12-18T18:49:37.184Z,45.73
2018-12-18T18:52:05.792Z,43.63
2018-12-18T18:54:34.235Z,44.53
2018-12-18T18:57:02.703Z,42.80
2018-12-18T18:59:31.181Z,43.10
2018-12-18T19:01:59.641Z,44.47
2018-12-18T19:04:28.222Z,39.63
2018-12-18T19:06:56.617Z,46.00
2018-12-18T19:09:25.091Z,42.50
2018-12-18T19:11:53.490Z,40.43
2018-12-18T19:14:22.073Z,40.93
2018-12-18T19:16:50.559Z,43.10
2018-12-18T19:19:19.062Z,46.10
2018-12-18T19:21:47.500Z,41.43
2018-12-18T19:24:16.020Z,45.10
2018-12-18T19:26:44.582Z,43.33
2018-12-18T19:29:13.043Z,46.00
2018-12-18T19:31:41.514Z,40.90
2018-12-18T19:34:09.923Z,42.27
2018-12-18T19:36:38.659Z,45.90
2018-12-18T19:39:08.763Z,47.20
2018-12-18T19:41:37.542Z,42.33
2018-12-18T19:44:05.963Z,40.17
2018-12-18T19:46:34.382Z,46.30
2018-12-18T19:49:02.849Z,43.47
2018-12-18T19:51:31.268Z,42.87
2018-12-18T19:53:59.699Z,41.83
2018-12-18T19:56:28.172Z,45.67
2018-12-18T19:58:56.677Z,50.27
2018-12-18T20:01:25.128Z,48.67
2018-12-18T20:03:53.510Z,48.23
2018-12-18T20:06:22.036Z,46.80
2018-12-18T20:08:50.558Z,45.17
2018-12-18T20:11:18.968Z,45.87
2018-12-18T20:13:47.417Z,54.83
2018-12-18T20:16:15.840Z,42.27
2018-12-18T20:18:44.453Z,48.20
2018-12-18T20:21:12.938Z,49.27
2018-12-18T20:23:41.437Z,50.27
2018-12-18T20:26:10.585Z,48.90
2018-12-18T20:28:39.073Z,46.97
2018-12-18T20:31:07.462Z,48.70
2018-12-18T20:33:35.941Z,48.53
2018-12-18T20:36:04.345Z,48.73
2018-12-18T20:38:32.785Z,51.73
2018-12-18T20:41:01.203Z,46.33
2018-12-18T20:43:29.600Z,53.33
2018-12-18T20:45:58.275Z,54.23
2018-12-18T20:48:26.717Z,51.53
2018-12-18T20:50:55.201Z,54.00
2018-12-18T20:53:23.663Z,52.67
2018-12-18T20:55:52.129Z,52.70
2018-12-18T20:58:20.536Z,57.33
2018-12-18T21:00:48.996Z,54.93
2018-12-18T21:03:17.386Z,49.97
2018-12-18T21:05:45.832Z,56.87
2018-12-18T21:08:14.242Z,53.60
2018-12-18T21:10:42.682Z,55.17
2018-12-18T21:13:16.416Z,53.30
2018-12-18T21:15:45.013Z,60.97
2018-12-18T21:18:13.449Z,49.57
2018-12-18T21:20:41.998Z,56.20
2018-12-18T21:23:10.434Z,53.33
2018-12-18T21:25:38.894Z,55.13
2018-12-18T21:28:07.332Z,53.00
2018-12-18T21:30:35.881Z,55.17
2018-12-18T21:33:04.550Z,52.67
2018-12-18T21:35:32.990Z,57.87
2018-12-18T21:38:01.420Z,53.27
2018-12-18T21:40:29.861Z,57.90
2018-12-18T21:42:58.260Z,56.07
2018-12-18T21:45:26.790Z,52.83
2018-12-18T21:47:55.259Z,60.23
2018-12-18T21:50:23.777Z,57.17
2018-12-18T21:52:52.158Z,50.17
2018-12-18T21:55:20.609Z,61.50
2018-12-18T21:57:49.030Z,53.37
2018-12-18T22:00:17.524Z,53.50
2018-12-18T22:02:45.977Z,53.07
2018-12-18T22:05:14.481Z,49.27
2018-12-18T22:07:42.953Z,50.30
2018-12-18T22:10:11.352Z,54.57
2018-12-18T22:12:39.917Z,44.90
2018-12-18T22:15:08.582Z,53.87
2018-12-18T22:17:37.175Z,51.63
2018-12-18T22:20:06.352Z,49.77
2018-12-18T22:22:34.797Z,51.30
2018-12-18T22:25:03.323Z,48.57
2018-12-18T22:27:31.799Z,51.33
2018-12-18T22:30:00.203Z,55.03
2018-12-18T22:32:28.617Z,46.97
2018-12-18T22:34:57.095Z,49.93
2018-12-18T22:37:25.491Z,52.37
2018-12-18T22:39:53.906Z,52.07
2018-12-18T22:42:22.342Z,49.93
2018-12-18T22:44:50.875Z,45.90
2018-12-18T22:47:19.278Z,50.07
2018-12-18T22:49:47.673Z,48.00
2018-12-18T22:52:16.217Z,48.43
2018-12-18T22:54:44.753Z,49.60
2018-12-18T22:57:13.614Z,49.77
2018-12-18T22:59:42.039Z,49.60
2018-12-18T23:02:16.256Z,48.60
2018-12-18T23:04:45.992Z,44.63
2018-12-18T23:07:14.726Z,49.40
2018-12-18T23:09:43.122Z,47.57
2018-12-18T23:12:11.566Z,49.87
2018-12-18T23:14:40.325Z,49.80
2018-12-18T23:17:08.734Z,50.63
2018-12-18T23:19:37.138Z,48.67
2018-12-18T23:22:05.576Z,51.00
2018-12-18T23:24:35.204Z,49.83
2018-12-18T23:27:03.862Z,46.97
2018-12-18T23:29:32.273Z,51.30
2018-12-18T23:32:00.682Z,49.73
2018-12-18T23:34:32.962Z,51.03
2018-12-18T23:36:59.502Z,52.77
2018-12-18T23:39:27.899Z,54.30
2018-12-18T23:41:56.311Z,51.17
2018-12-18T23:44:24.766Z,53.17
2018-12-18T23:46:53.242Z,49.07
2018-12-18T23:49:21.946Z,54.47
2018-12-18T23:51:50.639Z,49.53
2018-12-18T23:54:19.442Z,54.30
2018-12-18T23:56:47.820Z,56.00
2018-12-18T23:59:16.378Z,61.40
